createdAt,value
2023-09-27T00:01:36.823Z,6.88
2023-09-27T00:06:38.690Z,6.28
2023-09-27T00:11:40.810Z,5.70
2023-09-27T00:16:42.687Z,6.43
2023-09-27T00:21:44.540Z,7.18
2023-09-27T00:26:46.315Z,8.82
2023-09-27T00:31:48.275Z,6.90
2023-09-27T00:36:50.294Z,5.60
2023-09-27T00:41:52.092Z,4.80
2023-09-27T00:46:54.107Z,6.15
2023-09-27T00:51:56.133Z,7.15
2023-09-27T00:56:58.103Z,6.65
2023-09-27T01:02:00.052Z,6.90
2023-09-27T01:07:01.972Z,6.78
2023-09-27T01:12:05.752Z,6.10
2023-09-27T01:17:11.294Z,6.32
2023-09-27T01:22:13.161Z,6.50
2023-09-27T01:27:16.097Z,6.68
2023-09-27T01:32:19.199Z,6.50
2023-09-27T01:37:21.069Z,6.20
2023-09-27T01:42:22.886Z,6.50
2023-09-27T01:47:24.807Z,7.72
2023-09-27T01:52:26.598Z,5.47
2023-09-27T01:57:28.859Z,6.80
2023-09-27T02:02:30.848Z,5.32
2023-09-27T02:07:32.742Z,6.30
2023-09-27T02:12:34.609Z,5.38
2023-09-27T02:17:37.467Z,5.45
2023-09-27T02:22:41.337Z,5.28
2023-09-27T02:27:44.138Z,6.30
2023-09-27T02:32:46.794Z,7.28
2023-09-27T02:37:49.007Z,6.88
2023-09-27T02:42:51.652Z,8.95
2023-09-27T02:47:54.128Z,8.15
2023-09-27T02:52:55.967Z,8.10
2023-09-27T02:57:57.889Z,7.18
2023-09-27T03:03:01.248Z,7.47
2023-09-27T03:08:05.898Z,7.60
2023-09-27T03:13:09.291Z,7.18
2023-09-27T03:18:11.405Z,5.35
2023-09-27T03:23:13.331Z,8.70
2023-09-27T03:28:15.552Z,8.60
2023-09-27T03:33:17.551Z,6.78
2023-09-27T03:38:19.562Z,9.65
2023-09-27T03:43:21.399Z,9.50
2023-09-27T03:48:23.308Z,7.88
2023-09-27T03:53:25.309Z,7.93
2023-09-27T03:58:27.374Z,8.45
2023-09-27T04:03:29.348Z,7.90
2023-09-27T04:08:33.228Z,7.80
2023-09-27T04:13:35.456Z,5.83
2023-09-27T04:18:37.349Z,5.65
2023-09-27T04:23:39.694Z,6.68
2023-09-27T04:28:41.572Z,7.63
2023-09-27T04:33:45.614Z,6.45
2023-09-27T04:38:48.345Z,7.18
2023-09-27T04:43:50.133Z,6.55
2023-09-27T04:48:52.131Z,6.80
2023-09-27T04:53:54.213Z,24.20
2023-09-27T04:58:57.526Z,35.30
2023-09-27T05:03:59.547Z,11.75
2023-09-27T05:09:01.952Z,16.02
2023-09-27T05:14:04.369Z,18.15
2023-09-27T05:19:06.267Z,12.90
2023-09-27T05:24:08.786Z,10.65
2023-09-27T05:29:15.059Z,9.10
2023-09-27T05:34:17.022Z,8.63
2023-09-27T05:39:18.855Z,9.13
2023-09-27T05:44:20.760Z,9.90
2023-09-27T05:49:22.613Z,7.80
2023-09-27T05:54:24.877Z,9.27
2023-09-27T05:59:26.788Z,10.90
2023-09-27T06:04:28.657Z,9.35
2023-09-27T06:09:30.418Z,9.45
2023-09-27T06:14:32.792Z,9.30
2023-09-27T06:19:34.868Z,8.30
2023-09-27T06:24:36.642Z,5.28
2023-09-27T06:29:38.448Z,4.43
2023-09-27T06:34:40.697Z,5.20
2023-09-27T06:39:43.174Z,5.18
2023-09-27T06:44:44.942Z,4.65
2023-09-27T06:49:46.694Z,3.92
2023-09-27T06:54:48.456Z,3.35
2023-09-27T06:59:50.766Z,3.28
2023-09-27T07:04:52.673Z,2.70
2023-09-27T07:09:54.469Z,3.15
2023-09-27T07:14:56.238Z,3.42
2023-09-27T07:19:58.800Z,3.17
2023-09-27T07:25:02.843Z,2.90
2023-09-27T07:30:05.404Z,3.75
2023-09-27T07:35:12.253Z,3.75
2023-09-27T07:40:15.366Z,3.88
2023-09-27T07:45:23.312Z,3.97
2023-09-27T07:50:32.473Z,4.80
2023-09-27T07:55:44.282Z,3.28
2023-09-27T08:00:46.355Z,3.13
2023-09-27T08:05:50.589Z,3.67
2023-09-27T08:10:53.893Z,4.15
2023-09-27T08:15:55.677Z,3.58
2023-09-27T08:20:57.484Z,4.25
2023-09-27T08:25:59.387Z,3.40
2023-09-27T08:31:01.554Z,4.35
2023-09-27T08:36:03.719Z,4.37
2023-09-27T08:41:05.578Z,3.30
2023-09-27T08:46:08.069Z,3.67
2023-09-27T08:51:13.125Z,3.67
2023-09-27T08:56:17.687Z,3.47
2023-09-27T09:01:19.897Z,3.50
2023-09-27T09:06:22.383Z,3.40
2023-09-27T09:11:24.750Z,3.37
2023-09-27T09:16:27.186Z,3.70
2023-09-27T09:21:28.969Z,2.80
2023-09-27T09:26:31.283Z,3.75
2023-09-27T09:36:37.948Z,3.40
2023-09-27T09:41:50.609Z,3.88
2023-09-27T09:46:53.189Z,3.15
2023-09-27T09:57:08.925Z,3.17
2023-09-27T10:02:21.687Z,3.80
2023-09-27T10:07:24.319Z,3.70
2023-09-27T10:22:33.806Z,3.20
2023-09-27T10:28:07.765Z,3.73
2023-09-27T10:33:20.183Z,4.03
2023-09-27T10:38:22.144Z,4.43
2023-09-27T10:43:36.022Z,3.50
2023-09-27T10:48:38.967Z,3.50
2023-09-27T10:53:40.842Z,3.67
2023-09-27T10:58:54.602Z,3.43
2023-09-27T11:04:05.067Z,3.25
2023-09-27T11:09:13.381Z,3.85
2023-09-27T11:14:26.717Z,3.90
2023-09-27T11:19:29.900Z,2.95
2023-09-27T11:24:39.708Z,2.70
2023-09-27T11:29:41.549Z,3.20
2023-09-27T11:34:43.412Z,3.50
2023-09-27T11:39:51.200Z,3.40
2023-09-27T11:45:10.207Z,3.00
2023-09-27T11:50:12.070Z,3.40
2023-09-27T11:55:17.874Z,3.17
2023-09-27T12:00:20.340Z,3.22
2023-09-27T12:05:22.414Z,2.83
2023-09-27T12:10:24.642Z,2.90
2023-09-27T12:15:26.590Z,2.70
2023-09-27T12:20:39.387Z,3.03
2023-09-27T12:25:43.553Z,2.53
2023-09-27T12:30:45.358Z,2.50
2023-09-27T12:35:48.249Z,3.20
2023-09-27T12:40:50.130Z,2.83
2023-09-27T12:45:51.934Z,2.65
2023-09-27T12:50:53.933Z,2.80
2023-09-27T12:55:55.922Z,3.10
2023-09-27T13:00:57.808Z,3.03
2023-09-27T13:05:59.732Z,2.90
2023-09-27T13:11:02.251Z,2.87
2023-09-27T13:16:04.353Z,2.95
2023-09-27T13:21:11.150Z,3.13
2023-09-27T13:26:12.967Z,2.78
2023-09-27T13:31:14.818Z,2.80
2023-09-27T13:36:16.663Z,3.10
2023-09-27T13:41:18.706Z,3.08
2023-09-27T13:46:20.616Z,2.90
2023-09-27T13:51:22.537Z,3.47
2023-09-27T13:56:24.322Z,2.97
2023-09-27T14:01:27.220Z,3.80
2023-09-27T14:11:31.027Z,3.10
2023-09-27T14:16:32.929Z,3.90
2023-09-27T14:21:34.742Z,3.47
2023-09-27T14:26:37.624Z,3.30
2023-09-27T14:36:41.754Z,3.53
2023-09-27T14:41:45.188Z,2.97
2023-09-27T14:46:47.261Z,3.30
2023-09-27T14:51:50.854Z,3.60
2023-09-27T14:56:52.699Z,3.20
2023-09-27T15:01:58.757Z,3.60
2023-09-27T15:07:00.993Z,3.33
2023-09-27T15:12:03.051Z,4.00
2023-09-27T15:17:04.933Z,4.10
2023-09-27T15:22:06.954Z,3.83
2023-09-27T15:27:10.135Z,3.70
2023-09-27T15:32:12.036Z,3.50
2023-09-27T15:42:16.785Z,3.70
2023-09-27T15:47:18.673Z,3.70
2023-09-27T15:52:20.501Z,4.30
2023-09-27T15:57:23.271Z,4.85
2023-09-27T16:02:25.055Z,4.35
2023-09-27T16:07:27.012Z,4.20
2023-09-27T16:12:28.828Z,4.07
2023-09-27T16:17:30.978Z,4.32
2023-09-27T16:22:32.849Z,4.13
2023-09-27T16:27:35.324Z,4.10
2023-09-27T16:32:37.485Z,3.97
2023-09-27T16:37:39.853Z,4.05
2023-09-27T16:42:42.276Z,4.55
2023-09-27T16:47:44.513Z,4.78
2023-09-27T16:52:46.335Z,4.80
2023-09-27T16:57:48.172Z,4.93
2023-09-27T17:02:50.035Z,4.90
2023-09-27T17:07:51.897Z,4.68
2023-09-27T17:12:53.653Z,4.93
2023-09-27T17:17:55.466Z,4.78
2023-09-27T17:22:57.296Z,4.70
2023-09-27T17:27:59.068Z,4.53
2023-09-27T17:33:01.032Z,4.47
2023-09-27T17:38:03.629Z,5.28
2023-09-27T17:43:05.521Z,5.10
2023-09-27T17:48:07.736Z,5.63
2023-09-27T17:53:09.679Z,5.60
2023-09-27T17:58:12.268Z,5.60
2023-09-27T18:03:15.646Z,5.65
2023-09-27T18:08:17.629Z,5.82
2023-09-27T18:13:19.723Z,6.00
2023-09-27T18:18:22.806Z,7.00
2023-09-27T18:23:24.682Z,5.07
2023-09-27T18:28:26.720Z,6.90
2023-09-27T18:33:28.704Z,7.10
2023-09-27T18:38:30.636Z,6.88
2023-09-27T18:43:32.457Z,6.90
2023-09-27T18:48:34.378Z,6.55
2023-09-27T18:53:36.262Z,6.90
2023-09-27T18:58:38.171Z,6.10
2023-09-27T19:03:40.100Z,6.93
2023-09-27T19:13:00.797Z,7.10
2023-09-27T19:18:03.456Z,7.03
2023-09-27T19:23:05.381Z,6.95
2023-09-27T19:28:07.382Z,7.50
2023-09-27T19:33:10.111Z,6.45
2023-09-27T19:38:12.009Z,7.15
2023-09-27T19:43:13.792Z,6.57
2023-09-27T19:48:15.683Z,7.30
2023-09-27T19:53:17.760Z,7.07
2023-09-27T19:58:19.549Z,7.00
2023-09-27T20:03:22.106Z,5.97
2023-09-27T20:08:24.540Z,6.00
2023-09-27T20:13:26.288Z,6.57
2023-09-27T20:18:28.048Z,6.53
2023-09-27T20:23:29.843Z,7.88
2023-09-27T20:28:31.734Z,7.63
2023-09-27T20:33:33.553Z,8.27
2023-09-27T20:38:35.383Z,8.35
2023-09-27T20:43:37.222Z,7.75
2023-09-27T20:48:39.003Z,5.90
2023-09-27T20:53:40.883Z,7.22
2023-09-27T20:58:42.902Z,7.22
2023-09-27T21:03:44.875Z,6.10
2023-09-27T21:08:46.670Z,6.25
2023-09-27T21:13:48.470Z,5.65
2023-09-27T21:18:52.289Z,5.82
2023-09-27T21:23:54.663Z,6.70
2023-09-27T21:28:56.835Z,5.93
2023-09-27T21:33:58.735Z,5.55
2023-09-27T21:39:00.643Z,6.20
2023-09-27T21:44:02.598Z,5.40
2023-09-27T21:49:04.618Z,7.32
2023-09-27T21:54:06.657Z,7.63
2023-09-27T21:59:09.428Z,6.53
2023-09-27T22:04:11.291Z,7.07
2023-09-27T22:09:13.393Z,7.45
2023-09-27T22:14:15.893Z,6.80
2023-09-27T22:19:18.313Z,6.57
2023-09-27T22:24:22.413Z,8.05
2023-09-27T22:34:26.005Z,6.88
2023-09-27T22:39:31.305Z,7.50
2023-09-27T22:44:34.148Z,8.52
2023-09-27T22:49:38.068Z,7.05
2023-09-27T22:54:39.969Z,8.05
2023-09-27T22:59:41.723Z,8.18
2023-09-27T23:04:43.529Z,8.18
2023-09-27T23:09:48.137Z,9.18
2023-09-27T23:15:11.702Z,8.75
2023-09-27T23:20:14.075Z,9.50
2023-09-27T23:25:34.671Z,8.27
2023-09-27T23:30:36.504Z,7.97
2023-09-27T23:35:40.885Z,6.43
2023-09-27T23:40:43.179Z,7.80
2023-09-27T23:45:46.549Z,7.43
2023-09-27T23:50:48.552Z,7.07
2023-09-27T23:55:50.352Z,8.20
